sensor_id;sensor_type;location;lat;lon;timestamp;P1;durP1;ratioP1;P2;durP2;ratioP2
85475;SDS011;75880;41.476;22.164;2024-03-08T00:01:41;16.13;;;10.60;;
85475;SDS011;75880;41.476;22.164;2024-03-08T00:04:10;9.77;;;6.03;;
85475;SDS011;75880;41.476;22.164;2024-03-08T00:06:35;9.65;;;5.82;;
85475;SDS011;75880;41.476;22.164;2024-03-08T00:09:01;7.45;;;4.07;;
85475;SDS011;75880;41.476;22.164;2024-03-08T00:11:27;9.35;;;4.32;;
85475;SDS011;75880;41.476;22.164;2024-03-08T00:13:53;4.93;;;2.80;;
85475;SDS011;75880;41.476;22.164;2024-03-08T00:16:18;6.38;;;2.90;;
85475;SDS011;75880;41.476;22.164;2024-03-08T00:18:45;3.17;;;2.10;;
85475;SDS011;75880;41.476;22.164;2024-03-08T00:21:10;5.57;;;2.55;;
85475;SDS011;75880;41.476;22.164;2024-03-08T00:23:37;3.58;;;2.20;;
85475;SDS011;75880;41.476;22.164;2024-03-08T00:26:06;3.00;;;2.17;;
85475;SDS011;75880;41.476;22.164;2024-03-08T00:28:32;5.30;;;3.08;;
85475;SDS011;75880;41.476;22.164;2024-03-08T00:30:59;4.80;;;3.30;;
85475;SDS011;75880;41.476;22.164;2024-03-08T00:33:25;5.35;;;3.58;;
85475;SDS011;75880;41.476;22.164;2024-03-08T00:35:53;5.65;;;3.22;;
85475;SDS011;75880;41.476;22.164;2024-03-08T00:38:19;6.80;;;3.85;;
85475;SDS011;75880;41.476;22.164;2024-03-08T00:40:45;4.65;;;3.38;;
85475;SDS011;75880;41.476;22.164;2024-03-08T00:43:11;7.30;;;4.72;;
85475;SDS011;75880;41.476;22.164;2024-03-08T00:45:36;9.15;;;5.65;;
85475;SDS011;75880;41.476;22.164;2024-03-08T00:48:03;8.10;;;4.15;;
85475;SDS011;75880;41.476;22.164;2024-03-08T00:50:29;8.68;;;4.40;;
85475;SDS011;75880;41.476;22.164;2024-03-08T00:52:54;6.32;;;4.32;;
85475;SDS011;75880;41.476;22.164;2024-03-08T00:55:21;5.00;;;3.58;;
85475;SDS011;75880;41.476;22.164;2024-03-08T00:57:47;5.25;;;3.83;;
85475;SDS011;75880;41.476;22.164;2024-03-08T01:00:13;4.47;;;3.58;;
85475;SDS011;75880;41.476;22.164;2024-03-08T01:02:41;3.83;;;3.42;;
85475;SDS011;75880;41.476;22.164;2024-03-08T01:05:07;5.95;;;3.03;;
85475;SDS011;75880;41.476;22.164;2024-03-08T01:07:34;4.68;;;2.40;;
85475;SDS011;75880;41.476;22.164;2024-03-08T01:10:01;3.63;;;2.50;;
85475;SDS011;75880;41.476;22.164;2024-03-08T01:12:34;3.35;;;2.50;;
85475;SDS011;75880;41.476;22.164;2024-03-08T01:15:00;2.95;;;1.95;;
85475;SDS011;75880;41.476;22.164;2024-03-08T01:17:26;3.25;;;2.40;;
85475;SDS011;75880;41.476;22.164;2024-03-08T01:19:52;4.63;;;2.10;;
85475;SDS011;75880;41.476;22.164;2024-03-08T01:22:19;2.92;;;2.20;;
85475;SDS011;75880;41.476;22.164;2024-03-08T01:24:44;4.13;;;2.65;;
85475;SDS011;75880;41.476;22.164;2024-03-08T01:27:10;6.05;;;2.58;;
85475;SDS011;75880;41.476;22.164;2024-03-08T01:29:37;3.40;;;2.33;;
85475;SDS011;75880;41.476;22.164;2024-03-08T01:32:03;4.13;;;2.47;;
85475;SDS011;75880;41.476;22.164;2024-03-08T01:34:29;3.20;;;2.20;;
85475;SDS011;75880;41.476;22.164;2024-03-08T01:36:55;5.38;;;2.30;;
85475;SDS011;75880;41.476;22.164;2024-03-08T01:39:21;3.00;;;1.95;;
85475;SDS011;75880;41.476;22.164;2024-03-08T01:41:47;2.17;;;1.70;;
85475;SDS011;75880;41.476;22.164;2024-03-08T01:44:13;4.45;;;2.00;;
85475;SDS011;75880;41.476;22.164;2024-03-08T01:46:46;2.67;;;1.90;;
85475;SDS011;75880;41.476;22.164;2024-03-08T01:49:14;4.82;;;2.40;;
85475;SDS011;75880;41.476;22.164;2024-03-08T01:51:40;3.03;;;2.10;;
85475;SDS011;75880;41.476;22.164;2024-03-08T01:54:07;5.93;;;2.50;;
85475;SDS011;75880;41.476;22.164;2024-03-08T01:56:38;3.45;;;2.15;;
85475;SDS011;75880;41.476;22.164;2024-03-08T01:59:04;4.10;;;2.50;;
85475;SDS011;75880;41.476;22.164;2024-03-08T02:01:33;3.17;;;2.10;;
85475;SDS011;75880;41.476;22.164;2024-03-08T02:03:59;2.90;;;1.83;;
85475;SDS011;75880;41.476;22.164;2024-03-08T02:06:25;2.95;;;1.88;;
85475;SDS011;75880;41.476;22.164;2024-03-08T02:08:51;3.75;;;1.98;;
85475;SDS011;75880;41.476;22.164;2024-03-08T02:11:17;2.78;;;2.10;;
85475;SDS011;75880;41.476;22.164;2024-03-08T02:13:46;2.35;;;1.80;;
85475;SDS011;75880;41.476;22.164;2024-03-08T02:16:11;3.72;;;2.30;;
85475;SDS011;75880;41.476;22.164;2024-03-08T02:18:37;2.58;;;2.28;;
85475;SDS011;75880;41.476;22.164;2024-03-08T02:21:05;3.08;;;2.17;;
85475;SDS011;75880;41.476;22.164;2024-03-08T02:23:31;5.10;;;2.10;;
85475;SDS011;75880;41.476;22.164;2024-03-08T02:26:02;2.50;;;1.77;;
85475;SDS011;75880;41.476;22.164;2024-03-08T02:28:30;3.60;;;2.13;;
85475;SDS011;75880;41.476;22.164;2024-03-08T02:30:56;3.65;;;2.20;;
85475;SDS011;75880;41.476;22.164;2024-03-08T02:33:22;5.70;;;2.00;;
85475;SDS011;75880;41.476;22.164;2024-03-08T02:35:48;3.78;;;1.80;;
85475;SDS011;75880;41.476;22.164;2024-03-08T02:38:16;3.92;;;2.00;;
85475;SDS011;75880;41.476;22.164;2024-03-08T02:40:47;3.83;;;1.90;;
85475;SDS011;75880;41.476;22.164;2024-03-08T02:43:14;2.80;;;1.98;;
85475;SDS011;75880;41.476;22.164;2024-03-08T02:45:41;2.22;;;1.85;;
85475;SDS011;75880;41.476;22.164;2024-03-08T02:48:10;3.88;;;2.33;;
85475;SDS011;75880;41.476;22.164;2024-03-08T02:50:37;3.35;;;2.05;;
85475;SDS011;75880;41.476;22.164;2024-03-08T02:53:05;3.83;;;2.25;;
85475;SDS011;75880;41.476;22.164;2024-03-08T02:55:31;2.50;;;1.90;;
85475;SDS011;75880;41.476;22.164;2024-03-08T02:58:01;3.17;;;1.80;;
85475;SDS011;75880;41.476;22.164;2024-03-08T03:00:29;3.75;;;1.80;;
85475;SDS011;75880;41.476;22.164;2024-03-08T03:02:56;3.30;;;2.25;;
85475;SDS011;75880;41.476;22.164;2024-03-08T03:05:22;3.03;;;2.00;;
85475;SDS011;75880;41.476;22.164;2024-03-08T03:07:49;4.35;;;1.92;;
85475;SDS011;75880;41.476;22.164;2024-03-08T03:10:19;3.53;;;2.25;;
85475;SDS011;75880;41.476;22.164;2024-03-08T03:12:46;4.22;;;1.92;;
85475;SDS011;75880;41.476;22.164;2024-03-08T03:15:16;4.88;;;2.25;;
85475;SDS011;75880;41.476;22.164;2024-03-08T03:17:45;3.20;;;2.28;;
85475;SDS011;75880;41.476;22.164;2024-03-08T03:20:18;3.22;;;2.25;;
85475;SDS011;75880;41.476;22.164;2024-03-08T03:22:58;5.20;;;2.33;;
85475;SDS011;75880;41.476;22.164;2024-03-08T03:25:26;2.47;;;2.00;;
85475;SDS011;75880;41.476;22.164;2024-03-08T03:27:58;3.28;;;2.25;;
85475;SDS011;75880;41.476;22.164;2024-03-08T03:30:24;4.75;;;2.25;;
85475;SDS011;75880;41.476;22.164;2024-03-08T03:32:51;2.75;;;2.35;;
85475;SDS011;75880;41.476;22.164;2024-03-08T03:35:20;2.50;;;2.08;;
85475;SDS011;75880;41.476;22.164;2024-03-08T03:37:46;2.78;;;2.00;;
85475;SDS011;75880;41.476;22.164;2024-03-08T03:40:31;3.10;;;2.03;;
85475;SDS011;75880;41.476;22.164;2024-03-08T03:42:57;2.78;;;1.90;;
85475;SDS011;75880;41.476;22.164;2024-03-08T03:45:23;3.35;;;2.33;;
85475;SDS011;75880;41.476;22.164;2024-03-08T03:47:49;3.40;;;2.08;;
85475;SDS011;75880;41.476;22.164;2024-03-08T03:50:17;4.15;;;2.35;;
85475;SDS011;75880;41.476;22.164;2024-03-08T03:52:45;2.80;;;2.20;;
85475;SDS011;75880;41.476;22.164;2024-03-08T03:55:12;2.65;;;2.30;;
85475;SDS011;75880;41.476;22.164;2024-03-08T03:57:38;4.32;;;2.38;;
85475;SDS011;75880;41.476;22.164;2024-03-08T04:00:05;2.60;;;1.85;;
85475;SDS011;75880;41.476;22.164;2024-03-08T04:02:37;2.88;;;2.10;;
85475;SDS011;75880;41.476;22.164;2024-03-08T04:05:04;2.10;;;1.80;;
85475;SDS011;75880;41.476;22.164;2024-03-08T04:07:35;2.92;;;2.10;;
85475;SDS011;75880;41.476;22.164;2024-03-08T04:10:02;2.78;;;1.90;;
85475;SDS011;75880;41.476;22.164;2024-03-08T04:12:28;3.70;;;1.98;;
85475;SDS011;75880;41.476;22.164;2024-03-08T04:14:55;3.55;;;2.55;;
85475;SDS011;75880;41.476;22.164;2024-03-08T04:17:21;3.25;;;2.50;;
85475;SDS011;75880;41.476;22.164;2024-03-08T04:19:47;3.28;;;2.58;;
85475;SDS011;75880;41.476;22.164;2024-03-08T04:22:14;3.55;;;2.20;;
85475;SDS011;75880;41.476;22.164;2024-03-08T04:24:39;5.47;;;2.58;;
85475;SDS011;75880;41.476;22.164;2024-03-08T04:27:06;5.35;;;2.72;;
85475;SDS011;75880;41.476;22.164;2024-03-08T04:29:32;4.30;;;3.20;;
85475;SDS011;75880;41.476;22.164;2024-03-08T04:31:59;7.57;;;3.17;;
85475;SDS011;75880;41.476;22.164;2024-03-08T04:34:29;4.50;;;2.88;;
85475;SDS011;75880;41.476;22.164;2024-03-08T04:36:56;6.68;;;2.90;;
85475;SDS011;75880;41.476;22.164;2024-03-08T04:39:23;4.32;;;2.97;;
85475;SDS011;75880;41.476;22.164;2024-03-08T04:41:49;4.97;;;2.97;;
85475;SDS011;75880;41.476;22.164;2024-03-08T04:44:15;6.95;;;4.22;;
85475;SDS011;75880;41.476;22.164;2024-03-08T04:46:42;6.43;;;3.72;;
85475;SDS011;75880;41.476;22.164;2024-03-08T04:49:09;7.03;;;4.80;;
85475;SDS011;75880;41.476;22.164;2024-03-08T04:51:37;4.55;;;2.92;;
85475;SDS011;75880;41.476;22.164;2024-03-08T04:54:02;7.93;;;3.03;;
85475;SDS011;75880;41.476;22.164;2024-03-08T04:56:30;7.22;;;3.63;;
85475;SDS011;75880;41.476;22.164;2024-03-08T04:58:56;4.65;;;3.20;;
85475;SDS011;75880;41.476;22.164;2024-03-08T05:01:22;3.72;;;2.92;;
85475;SDS011;75880;41.476;22.164;2024-03-08T05:03:48;5.13;;;2.90;;
85475;SDS011;75880;41.476;22.164;2024-03-08T05:06:15;3.70;;;2.95;;
85475;SDS011;75880;41.476;22.164;2024-03-08T05:08:41;5.43;;;3.00;;
85475;SDS011;75880;41.476;22.164;2024-03-08T05:11:07;4.70;;;3.05;;
85475;SDS011;75880;41.476;22.164;2024-03-08T05:13:33;5.13;;;3.03;;
85475;SDS011;75880;41.476;22.164;2024-03-08T05:16:02;6.30;;;3.58;;
85475;SDS011;75880;41.476;22.164;2024-03-08T05:18:28;3.70;;;3.03;;
85475;SDS011;75880;41.476;22.164;2024-03-08T05:20:57;6.50;;;2.80;;
85475;SDS011;75880;41.476;22.164;2024-03-08T05:23:23;5.32;;;3.30;;
85475;SDS011;75880;41.476;22.164;2024-03-08T05:25:48;5.68;;;3.08;;
85475;SDS011;75880;41.476;22.164;2024-03-08T05:28:14;24.13;;;13.88;;
85475;SDS011;75880;41.476;22.164;2024-03-08T05:30:40;13.77;;;7.63;;
85475;SDS011;75880;41.476;22.164;2024-03-08T05:33:06;4.78;;;3.55;;
85475;SDS011;75880;41.476;22.164;2024-03-08T05:35:35;4.32;;;3.30;;
85475;SDS011;75880;41.476;22.164;2024-03-08T05:38:01;5.40;;;3.97;;
85475;SDS011;75880;41.476;22.164;2024-03-08T05:40:27;5.35;;;3.58;;
85475;SDS011;75880;41.476;22.164;2024-03-08T05:42:57;7.05;;;3.72;;
85475;SDS011;75880;41.476;22.164;2024-03-08T05:45:24;6.32;;;3.80;;
85475;SDS011;75880;41.476;22.164;2024-03-08T05:47:51;7.88;;;3.97;;
85475;SDS011;75880;41.476;22.164;2024-03-08T05:50:17;11.60;;;5.18;;
85475;SDS011;75880;41.476;22.164;2024-03-08T05:52:44;14.55;;;5.75;;
85475;SDS011;75880;41.476;22.164;2024-03-08T05:55:12;15.90;;;5.00;;
85475;SDS011;75880;41.476;22.164;2024-03-08T05:57:42;6.88;;;4.85;;
85475;SDS011;75880;41.476;22.164;2024-03-08T06:00:08;9.90;;;6.50;;
85475;SDS011;75880;41.476;22.164;2024-03-08T06:02:41;10.15;;;6.55;;
85475;SDS011;75880;41.476;22.164;2024-03-08T06:05:10;25.05;;;11.10;;
85475;SDS011;75880;41.476;22.164;2024-03-08T06:07:36;21.60;;;11.07;;
85475;SDS011;75880;41.476;22.164;2024-03-08T06:10:06;15.27;;;9.25;;
85475;SDS011;75880;41.476;22.164;2024-03-08T06:12:35;15.65;;;9.13;;
85475;SDS011;75880;41.476;22.164;2024-03-08T06:15:05;21.73;;;12.65;;
85475;SDS011;75880;41.476;22.164;2024-03-08T06:17:31;14.65;;;8.80;;
85475;SDS011;75880;41.476;22.164;2024-03-08T06:19:57;13.73;;;7.80;;
85475;SDS011;75880;41.476;22.164;2024-03-08T06:22:23;10.10;;;6.45;;
85475;SDS011;75880;41.476;22.164;2024-03-08T06:24:49;17.58;;;11.02;;
85475;SDS011;75880;41.476;22.164;2024-03-08T06:27:14;14.68;;;7.78;;
85475;SDS011;75880;41.476;22.164;2024-03-08T06:29:40;14.00;;;8.43;;
85475;SDS011;75880;41.476;22.164;2024-03-08T06:32:06;14.60;;;9.07;;
85475;SDS011;75880;41.476;22.164;2024-03-08T06:34:35;17.90;;;9.98;;
85475;SDS011;75880;41.476;22.164;2024-03-08T06:37:00;12.57;;;5.30;;
85475;SDS011;75880;41.476;22.164;2024-03-08T06:39:27;5.22;;;3.53;;
85475;SDS011;75880;41.476;22.164;2024-03-08T06:41:59;3.70;;;2.90;;
85475;SDS011;75880;41.476;22.164;2024-03-08T06:44:25;4.50;;;3.50;;
85475;SDS011;75880;41.476;22.164;2024-03-08T06:46:51;7.60;;;4.70;;
85475;SDS011;75880;41.476;22.164;2024-03-08T06:49:16;8.82;;;5.88;;
85475;SDS011;75880;41.476;22.164;2024-03-08T06:51:42;10.20;;;5.40;;
85475;SDS011;75880;41.476;22.164;2024-03-08T06:54:08;14.52;;;9.65;;
85475;SDS011;75880;41.476;22.164;2024-03-08T06:56:37;10.85;;;6.60;;
85475;SDS011;75880;41.476;22.164;2024-03-08T06:59:03;8.05;;;5.57;;
85475;SDS011;75880;41.476;22.164;2024-03-08T07:01:29;10.15;;;5.57;;
85475;SDS011;75880;41.476;22.164;2024-03-08T07:03:57;13.02;;;7.43;;
85475;SDS011;75880;41.476;22.164;2024-03-08T07:06:23;60.58;;;22.55;;
85475;SDS011;75880;41.476;22.164;2024-03-08T07:08:49;51.53;;;20.67;;
85475;SDS011;75880;41.476;22.164;2024-03-08T07:11:14;36.95;;;19.90;;
85475;SDS011;75880;41.476;22.164;2024-03-08T07:13:46;17.92;;;10.32;;
85475;SDS011;75880;41.476;22.164;2024-03-08T07:16:12;10.70;;;5.20;;
85475;SDS011;75880;41.476;22.164;2024-03-08T07:18:38;11.57;;;6.55;;
85475;SDS011;75880;41.476;22.164;2024-03-08T07:21:08;9.43;;;5.72;;
85475;SDS011;75880;41.476;22.164;2024-03-08T07:23:38;8.05;;;4.72;;
85475;SDS011;75880;41.476;22.164;2024-03-08T07:26:28;6.93;;;4.70;;
85475;SDS011;75880;41.476;22.164;2024-03-08T07:28:54;8.38;;;5.95;;
85475;SDS011;75880;41.476;22.164;2024-03-08T07:31:20;9.38;;;5.50;;
85475;SDS011;75880;41.476;22.164;2024-03-08T07:34:00;27.40;;;12.25;;
85475;SDS011;75880;41.476;22.164;2024-03-08T07:36:26;10.43;;;6.05;;
85475;SDS011;75880;41.476;22.164;2024-03-08T07:38:51;11.15;;;6.57;;
85475;SDS011;75880;41.476;22.164;2024-03-08T07:41:17;7.95;;;5.38;;
85475;SDS011;75880;41.476;22.164;2024-03-08T07:43:42;9.20;;;4.75;;
85475;SDS011;75880;41.476;22.164;2024-03-08T07:46:11;9.98;;;4.75;;
85475;SDS011;75880;41.476;22.164;2024-03-08T07:48:38;9.23;;;5.10;;
85475;SDS011;75880;41.476;22.164;2024-03-08T07:51:05;12.63;;;5.22;;
85475;SDS011;75880;41.476;22.164;2024-03-08T07:53:31;18.40;;;5.72;;
85475;SDS011;75880;41.476;22.164;2024-03-08T07:55:56;7.30;;;4.72;;
85475;SDS011;75880;41.476;22.164;2024-03-08T07:58:22;6.50;;;4.57;;
85475;SDS011;75880;41.476;22.164;2024-03-08T08:00:49;15.57;;;7.28;;
85475;SDS011;75880;41.476;22.164;2024-03-08T08:03:14;7.55;;;5.00;;
85475;SDS011;75880;41.476;22.164;2024-03-08T08:05:41;10.70;;;6.63;;
85475;SDS011;75880;41.476;22.164;2024-03-08T08:08:07;9.13;;;4.18;;
85475;SDS011;75880;41.476;22.164;2024-03-08T08:10:35;13.93;;;6.50;;
85475;SDS011;75880;41.476;22.164;2024-03-08T08:13:01;8.65;;;5.32;;
85475;SDS011;75880;41.476;22.164;2024-03-08T08:15:29;6.03;;;4.40;;
85475;SDS011;75880;41.476;22.164;2024-03-08T08:17:55;7.03;;;4.70;;
85475;SDS011;75880;41.476;22.164;2024-03-08T08:20:21;7.28;;;4.60;;
85475;SDS011;75880;41.476;22.164;2024-03-08T08:22:48;7.53;;;4.38;;
85475;SDS011;75880;41.476;22.164;2024-03-08T08:25:14;4.78;;;3.63;;
85475;SDS011;75880;41.476;22.164;2024-03-08T08:27:41;6.32;;;3.78;;
85475;SDS011;75880;41.476;22.164;2024-03-08T08:30:10;10.32;;;6.25;;
85475;SDS011;75880;41.476;22.164;2024-03-08T08:32:36;8.48;;;4.55;;
85475;SDS011;75880;41.476;22.164;2024-03-08T08:35:03;7.03;;;4.30;;
85475;SDS011;75880;41.476;22.164;2024-03-08T08:37:33;11.98;;;5.25;;
85475;SDS011;75880;41.476;22.164;2024-03-08T08:40:02;7.22;;;3.97;;
85475;SDS011;75880;41.476;22.164;2024-03-08T08:42:34;7.05;;;4.07;;
85475;SDS011;75880;41.476;22.164;2024-03-08T08:44:59;7.85;;;4.50;;
85475;SDS011;75880;41.476;22.164;2024-03-08T08:47:26;8.05;;;4.97;;
85475;SDS011;75880;41.476;22.164;2024-03-08T08:49:52;8.07;;;4.53;;
85475;SDS011;75880;41.476;22.164;2024-03-08T08:52:19;8.60;;;4.20;;
85475;SDS011;75880;41.476;22.164;2024-03-08T08:54:44;7.43;;;5.38;;
85475;SDS011;75880;41.476;22.164;2024-03-08T08:57:10;8.25;;;4.85;;
85475;SDS011;75880;41.476;22.164;2024-03-08T08:59:36;7.45;;;4.43;;
85475;SDS011;75880;41.476;22.164;2024-03-08T09:02:07;7.93;;;4.55;;
85475;SDS011;75880;41.476;22.164;2024-03-08T09:04:34;7.82;;;4.25;;
85475;SDS011;75880;41.476;22.164;2024-03-08T09:07:00;9.18;;;5.32;;
85475;SDS011;75880;41.476;22.164;2024-03-08T09:09:26;7.28;;;5.40;;
85475;SDS011;75880;41.476;22.164;2024-03-08T09:11:55;6.80;;;4.20;;
85475;SDS011;75880;41.476;22.164;2024-03-08T09:14:21;8.38;;;5.15;;
85475;SDS011;75880;41.476;22.164;2024-03-08T09:16:46;9.02;;;4.70;;
85475;SDS011;75880;41.476;22.164;2024-03-08T09:19:13;9.48;;;4.38;;
85475;SDS011;75880;41.476;22.164;2024-03-08T09:21:38;6.18;;;3.95;;
85475;SDS011;75880;41.476;22.164;2024-03-08T09:24:05;7.00;;;4.32;;
85475;SDS011;75880;41.476;22.164;2024-03-08T09:26:32;8.63;;;4.53;;
85475;SDS011;75880;41.476;22.164;2024-03-08T09:28:58;8.68;;;4.50;;
85475;SDS011;75880;41.476;22.164;2024-03-08T09:31:24;9.95;;;5.13;;
85475;SDS011;75880;41.476;22.164;2024-03-08T09:33:51;7.32;;;3.92;;
85475;SDS011;75880;41.476;22.164;2024-03-08T09:36:16;6.20;;;3.72;;
85475;SDS011;75880;41.476;22.164;2024-03-08T09:38:42;12.13;;;6.00;;
85475;SDS011;75880;41.476;22.164;2024-03-08T09:41:09;6.60;;;3.92;;
85475;SDS011;75880;41.476;22.164;2024-03-08T09:43:38;6.45;;;3.85;;
85475;SDS011;75880;41.476;22.164;2024-03-08T09:46:04;6.75;;;3.33;;
85475;SDS011;75880;41.476;22.164;2024-03-08T09:48:32;8.25;;;4.30;;
85475;SDS011;75880;41.476;22.164;2024-03-08T09:51:01;7.05;;;3.70;;
85475;SDS011;75880;41.476;22.164;2024-03-08T09:53:32;6.90;;;4.00;;
85475;SDS011;75880;41.476;22.164;2024-03-08T09:55:58;6.35;;;3.55;;
85475;SDS011;75880;41.476;22.164;2024-03-08T09:58:24;7.80;;;3.63;;
85475;SDS011;75880;41.476;22.164;2024-03-08T10:00:53;3.95;;;3.08;;
85475;SDS011;75880;41.476;22.164;2024-03-08T10:03:19;4.40;;;3.28;;
85475;SDS011;75880;41.476;22.164;2024-03-08T10:05:45;4.90;;;3.42;;
85475;SDS011;75880;41.476;22.164;2024-03-08T10:08:11;6.00;;;2.92;;
85475;SDS011;75880;41.476;22.164;2024-03-08T10:10:38;5.30;;;3.08;;
85475;SDS011;75880;41.476;22.164;2024-03-08T10:13:08;5.70;;;3.25;;
85475;SDS011;75880;41.476;22.164;2024-03-08T10:15:39;4.60;;;3.15;;
85475;SDS011;75880;41.476;22.164;2024-03-08T10:18:05;7.10;;;3.83;;
85475;SDS011;75880;41.476;22.164;2024-03-08T10:20:32;4.82;;;3.13;;
85475;SDS011;75880;41.476;22.164;2024-03-08T10:23:01;5.38;;;3.42;;
85475;SDS011;75880;41.476;22.164;2024-03-08T10:25:29;5.65;;;2.90;;
85475;SDS011;75880;41.476;22.164;2024-03-08T10:27:57;3.20;;;2.38;;
85475;SDS011;75880;41.476;22.164;2024-03-08T10:30:23;4.85;;;2.80;;
85475;SDS011;75880;41.476;22.164;2024-03-08T10:32:49;3.60;;;2.70;;
85475;SDS011;75880;41.476;22.164;2024-03-08T10:35:14;5.57;;;3.80;;
85475;SDS011;75880;41.476;22.164;2024-03-08T10:40:18;8.80;;;3.03;;
85475;SDS011;75880;41.476;22.164;2024-03-08T10:43:06;7.53;;;3.88;;
85475;SDS011;75880;41.476;22.164;2024-03-08T10:45:39;8.07;;;3.33;;
85475;SDS011;75880;41.476;22.164;2024-03-08T10:50:57;6.05;;;3.50;;
85475;SDS011;75880;41.476;22.164;2024-03-08T10:53:26;8.20;;;4.78;;
85475;SDS011;75880;41.476;22.164;2024-03-08T10:55:57;4.80;;;3.67;;
85475;SDS011;75880;41.476;22.164;2024-03-08T10:58:26;6.00;;;2.95;;
85475;SDS011;75880;41.476;22.164;2024-03-08T11:00:57;4.90;;;3.08;;
85475;SDS011;75880;41.476;22.164;2024-03-08T11:03:55;5.63;;;2.70;;
85475;SDS011;75880;41.476;22.164;2024-03-08T11:06:19;3.90;;;2.53;;
85475;SDS011;75880;41.476;22.164;2024-03-08T11:15:01;6.65;;;4.45;;
85475;SDS011;75880;41.476;22.164;2024-03-08T11:22:51;4.43;;;2.90;;
85475;SDS011;75880;41.476;22.164;2024-03-08T11:25:41;4.95;;;3.20;;
85475;SDS011;75880;41.476;22.164;2024-03-08T11:28:17;5.45;;;2.92;;
85475;SDS011;75880;41.476;22.164;2024-03-08T11:30:43;4.25;;;2.83;;
85475;SDS011;75880;41.476;22.164;2024-03-08T11:33:14;5.72;;;3.00;;
85475;SDS011;75880;41.476;22.164;2024-03-08T11:35:42;4.30;;;2.72;;
85475;SDS011;75880;41.476;22.164;2024-03-08T11:38:11;3.10;;;2.63;;
85475;SDS011;75880;41.476;22.164;2024-03-08T11:40:42;5.32;;;2.40;;
85475;SDS011;75880;41.476;22.164;2024-03-08T11:43:08;3.90;;;2.92;;
85475;SDS011;75880;41.476;22.164;2024-03-08T11:45:36;6.82;;;2.53;;
85475;SDS011;75880;41.476;22.164;2024-03-08T11:48:03;3.17;;;2.20;;
85475;SDS011;75880;41.476;22.164;2024-03-08T11:50:30;6.63;;;2.72;;
85475;SDS011;75880;41.476;22.164;2024-03-08T11:53:03;4.07;;;2.38;;
85475;SDS011;75880;41.476;22.164;2024-03-08T11:55:30;2.80;;;2.05;;
85475;SDS011;75880;41.476;22.164;2024-03-08T11:58:04;2.92;;;2.20;;
85475;SDS011;75880;41.476;22.164;2024-03-08T12:00:33;4.28;;;2.10;;
85475;SDS011;75880;41.476;22.164;2024-03-08T12:03:06;4.88;;;2.53;;
85475;SDS011;75880;41.476;22.164;2024-03-08T12:05:37;3.65;;;2.38;;
85475;SDS011;75880;41.476;22.164;2024-03-08T12:08:03;5.65;;;2.03;;
85475;SDS011;75880;41.476;22.164;2024-03-08T12:10:32;7.28;;;2.13;;
85475;SDS011;75880;41.476;22.164;2024-03-08T12:13:00;5.30;;;2.30;;
85475;SDS011;75880;41.476;22.164;2024-03-08T12:15:26;3.25;;;2.17;;
85475;SDS011;75880;41.476;22.164;2024-03-08T12:17:53;3.25;;;2.25;;
85475;SDS011;75880;41.476;22.164;2024-03-08T12:22:56;3.92;;;2.38;;
85475;SDS011;75880;41.476;22.164;2024-03-08T12:25:26;5.90;;;2.42;;
85475;SDS011;75880;41.476;22.164;2024-03-08T12:28:11;3.10;;;2.40;;
85475;SDS011;75880;41.476;22.164;2024-03-08T12:30:48;3.47;;;1.90;;
85475;SDS011;75880;41.476;22.164;2024-03-08T12:33:19;3.33;;;2.05;;
85475;SDS011;75880;41.476;22.164;2024-03-08T12:35:52;3.65;;;1.90;;
85475;SDS011;75880;41.476;22.164;2024-03-08T12:38:23;2.92;;;1.77;;
85475;SDS011;75880;41.476;22.164;2024-03-08T12:40:57;4.97;;;2.45;;
85475;SDS011;75880;41.476;22.164;2024-03-08T12:43:24;2.85;;;2.03;;
85475;SDS011;75880;41.476;22.164;2024-03-08T12:45:50;8.45;;;2.33;;
85475;SDS011;75880;41.476;22.164;2024-03-08T12:48:16;3.00;;;1.77;;
85475;SDS011;75880;41.476;22.164;2024-03-08T12:50:42;3.30;;;2.05;;
85475;SDS011;75880;41.476;22.164;2024-03-08T12:53:13;3.33;;;2.17;;
85475;SDS011;75880;41.476;22.164;2024-03-08T12:55:39;4.88;;;3.45;;
85475;SDS011;75880;41.476;22.164;2024-03-08T12:58:05;2.47;;;1.65;;
85475;SDS011;75880;41.476;22.164;2024-03-08T13:00:34;2.58;;;1.88;;
85475;SDS011;75880;41.476;22.164;2024-03-08T13:03:05;2.50;;;1.65;;
85475;SDS011;75880;41.476;22.164;2024-03-08T13:05:32;4.22;;;2.78;;
85475;SDS011;75880;41.476;22.164;2024-03-08T13:07:57;5.47;;;1.52;;
85475;SDS011;75880;41.476;22.164;2024-03-08T13:10:23;3.85;;;2.13;;
85475;SDS011;75880;41.476;22.164;2024-03-08T13:12:48;3.05;;;2.40;;
85475;SDS011;75880;41.476;22.164;2024-03-08T13:15:14;3.30;;;2.10;;
85475;SDS011;75880;41.476;22.164;2024-03-08T13:17:45;2.40;;;1.73;;
85475;SDS011;75880;41.476;22.164;2024-03-08T13:20:13;2.67;;;1.77;;
85475;SDS011;75880;41.476;22.164;2024-03-08T13:22:43;7.93;;;2.08;;
85475;SDS011;75880;41.476;22.164;2024-03-08T13:25:09;6.82;;;3.53;;
85475;SDS011;75880;41.476;22.164;2024-03-08T13:27:41;2.88;;;1.80;;
85475;SDS011;75880;41.476;22.164;2024-03-08T13:32:44;4.35;;;2.05;;
85475;SDS011;75880;41.476;22.164;2024-03-08T13:35:11;4.18;;;2.50;;
85475;SDS011;75880;41.476;22.164;2024-03-08T13:37:41;5.75;;;3.35;;
85475;SDS011;75880;41.476;22.164;2024-03-08T13:40:08;3.67;;;1.70;;
85475;SDS011;75880;41.476;22.164;2024-03-08T13:45:11;3.70;;;2.20;;
85475;SDS011;75880;41.476;22.164;2024-03-08T13:47:42;4.72;;;2.03;;
85475;SDS011;75880;41.476;22.164;2024-03-08T13:50:09;2.42;;;1.52;;
85475;SDS011;75880;41.476;22.164;2024-03-08T13:52:41;3.15;;;1.88;;
85475;SDS011;75880;41.476;22.164;2024-03-08T13:55:09;3.45;;;1.80;;
85475;SDS011;75880;41.476;22.164;2024-03-08T13:57:34;2.80;;;1.95;;
85475;SDS011;75880;41.476;22.164;2024-03-08T14:00:00;4.53;;;2.10;;
85475;SDS011;75880;41.476;22.164;2024-03-08T14:02:26;3.47;;;2.28;;
85475;SDS011;75880;41.476;22.164;2024-03-08T14:04:54;6.35;;;2.08;;
85475;SDS011;75880;41.476;22.164;2024-03-08T14:07:22;4.47;;;1.90;;
85475;SDS011;75880;41.476;22.164;2024-03-08T14:09:51;3.58;;;1.73;;
85475;SDS011;75880;41.476;22.164;2024-03-08T14:12:18;2.72;;;1.77;;
85475;SDS011;75880;41.476;22.164;2024-03-08T14:14:44;2.60;;;1.80;;
85475;SDS011;75880;41.476;22.164;2024-03-08T14:17:10;7.68;;;3.90;;
85475;SDS011;75880;41.476;22.164;2024-03-08T14:19:41;3.63;;;2.08;;
85475;SDS011;75880;41.476;22.164;2024-03-08T14:22:07;3.30;;;1.75;;
85475;SDS011;75880;41.476;22.164;2024-03-08T14:24:32;2.58;;;1.67;;
85475;SDS011;75880;41.476;22.164;2024-03-08T14:27:05;5.10;;;1.92;;
85475;SDS011;75880;41.476;22.164;2024-03-08T14:29:33;2.67;;;1.90;;
85475;SDS011;75880;41.476;22.164;2024-03-08T14:31:59;4.18;;;2.45;;
85475;SDS011;75880;41.476;22.164;2024-03-08T14:34:25;2.05;;;1.60;;
85475;SDS011;75880;41.476;22.164;2024-03-08T14:36:52;5.78;;;2.78;;
85475;SDS011;75880;41.476;22.164;2024-03-08T14:39:18;9.25;;;2.30;;
85475;SDS011;75880;41.476;22.164;2024-03-08T14:41:50;4.07;;;2.13;;
85475;SDS011;75880;41.476;22.164;2024-03-08T14:44:19;12.82;;;3.05;;
85475;SDS011;75880;41.476;22.164;2024-03-08T14:46:45;3.85;;;1.88;;
85475;SDS011;75880;41.476;22.164;2024-03-08T14:49:12;2.97;;;1.90;;
85475;SDS011;75880;41.476;22.164;2024-03-08T14:51:38;3.25;;;2.40;;
85475;SDS011;75880;41.476;22.164;2024-03-08T14:54:03;3.05;;;2.25;;
85475;SDS011;75880;41.476;22.164;2024-03-08T14:59:00;5.75;;;3.45;;
85475;SDS011;75880;41.476;22.164;2024-03-08T15:01:26;2.83;;;2.05;;
85475;SDS011;75880;41.476;22.164;2024-03-08T15:03:55;3.33;;;2.33;;